DEBTO EDDG-EDDG
Flight info
| Callsign | DEBTO |
|---|---|
| Flight time | 0h 4m |
| Altitude | |
| Route | |
| Aircraft | C152 |
Departure
| Time | 2026-04-29 17:44 |
|---|---|
| Airport | Münster Osnabrück Airport (EDDG) |
Arrival
| Time | 2026-04-29 17:48 |
|---|---|
| Airport | Münster Osnabrück Airport (EDDG) |
| Time | Latitude | Longitude | Altitude | Speed | Heading |
|---|---|---|---|---|---|
| 2026-04-29 17:37 | 52.13130 | 7.68336 | 162 ft | 0 kts | 91° |
| 2026-04-29 17:38 | 52.13132 | 7.68368 | 162 ft | 7 kts | 53° |
| 2026-04-29 17:39 | 52.13178 | 7.68364 | 162 ft | 8 kts | 344° |
| 2026-04-29 17:39 | 52.13230 | 7.68334 | 162 ft | 9 kts | 341° |
| 2026-04-29 17:39 | 52.13301 | 7.68294 | 162 ft | 12 kts | 340° |
| 2026-04-29 17:39 | 52.13322 | 7.68283 | 162 ft | 0 kts | 341° |
| 2026-04-29 17:41 | 52.13348 | 7.68268 | 162 ft | 0 kts | 343° |
| 2026-04-29 17:41 | 52.13354 | 7.68265 | 162 ft | 6 kts | 341° |
| 2026-04-29 17:41 | 52.13413 | 7.68249 | 163 ft | 5 kts | 47° |
| 2026-04-29 17:42 | 52.13419 | 7.68266 | 163 ft | 0 kts | 71° |
| 2026-04-29 17:43 | 52.13452 | 7.68426 | 163 ft | 41 kts | 71° |
| 2026-04-29 17:43 | 52.13586 | 7.69040 | 247 ft | 63 kts | 70° |
| 2026-04-29 17:44 | 52.13738 | 7.69676 | 463 ft | 58 kts | 68° |
| 2026-04-29 17:44 | 52.13843 | 7.70358 | 647 ft | 68 kts | 96° |
| 2026-04-29 17:44 | 52.13570 | 7.71013 | 808 ft | 77 kts | 139° |
| 2026-04-29 17:44 | 52.13028 | 7.71239 | 938 ft | 85 kts | 162° |
| 2026-04-29 17:45 | 52.12444 | 7.71232 | 1065 ft | 88 kts | 190° |
| 2026-04-29 17:45 | 52.11971 | 7.70504 | 1091 ft | 106 kts | 242° |
| 2026-04-29 17:45 | 52.11738 | 7.69306 | 1052 ft | 112 kts | 251° |
| 2026-04-29 17:45 | 52.11520 | 7.68070 | 1029 ft | 116 kts | 255° |
| 2026-04-29 17:46 | 52.11339 | 7.66757 | 1028 ft | 119 kts | 262° |
| 2026-04-29 17:46 | 52.11179 | 7.65482 | 984 ft | 115 kts | 260° |
| 2026-04-29 17:46 | 52.11337 | 7.64362 | 937 ft | 98 kts | 313° |
| 2026-04-29 17:46 | 52.11778 | 7.63817 | 928 ft | 72 kts | 352° |
| 2026-04-29 17:47 | 52.12232 | 7.63761 | 824 ft | 58 kts | 32° |
| 2026-04-29 17:47 | 52.12526 | 7.64161 | 696 ft | 57 kts | 61° |
| 2026-04-29 17:47 | 52.12690 | 7.64802 | 568 ft | 66 kts | 71° |
| 2026-04-29 17:47 | 52.12832 | 7.65525 | 487 ft | 67 kts | 69° |
| 2026-04-29 17:48 | 52.12987 | 7.66237 | 366 ft | 65 kts | 69° |
| 2026-04-29 17:48 | 52.13138 | 7.66932 | 216 ft | 64 kts | 73° |
| 2026-04-29 17:48 | 52.13261 | 7.67524 | 159 ft | 45 kts | 70° |
| 2026-04-29 17:48 | 52.13386 | 7.68102 | 259 ft | 57 kts | 69° |
| 2026-04-29 17:49 | 52.13501 | 7.68687 | 473 ft | 53 kts | 69° |
| 2026-04-29 17:49 | 52.13645 | 7.69256 | 671 ft | 54 kts | 66° |
| 2026-04-29 17:49 | 52.13643 | 7.69945 | 757 ft | 73 kts | 107° |
| 2026-04-29 17:49 | 52.13205 | 7.70457 | 879 ft | 89 kts | 154° |
| 2026-04-29 17:50 | 52.12580 | 7.70569 | 955 ft | 90 kts | 168° |
| 2026-04-29 17:50 | 52.11952 | 7.70509 | 1019 ft | 90 kts | 178° |
| 2026-04-29 17:50 | 52.11329 | 7.70389 | 1042 ft | 93 kts | 178° |
| 2026-04-29 17:50 | 52.10690 | 7.70223 | 1062 ft | 93 kts | 187° |
| 2026-04-29 17:51 | 52.10091 | 7.69854 | 1079 ft | 94 kts | 192° |
| 2026-04-29 17:51 | 52.09464 | 7.69574 | 1047 ft | 96 kts | 181° |
| 2026-04-29 17:51 | 52.08814 | 7.69415 | 1023 ft | 94 kts | 178° |
| 2026-04-29 17:51 | 52.08183 | 7.69336 | 1064 ft | 92 kts | 178° |
| 2026-04-29 17:52 | 52.07538 | 7.69199 | 1071 ft | 93 kts | 176° |
| 2026-04-29 17:52 | 52.07097 | 7.69121 | 1047 ft | 95 kts | 178° |
| 2026-04-29 17:52 | 52.06233 | 7.68963 | 1055 ft | 94 kts | 178° |
| 2026-04-29 17:52 | 52.05572 | 7.68796 | 1029 ft | 100 kts | 184° |
| 2026-04-29 17:53 | 52.04925 | 7.68297 | 1062 ft | 104 kts | 206° |
| 2026-04-29 17:53 | 52.04345 | 7.67589 | 1037 ft | 106 kts | 206° |
| 2026-04-29 17:53 | 52.03730 | 7.67032 | 1122 ft | 97 kts | 196° |
| 2026-04-29 17:53 | 52.03130 | 7.66615 | 1193 ft | 91 kts | 186° |
| 2026-04-29 17:54 | 52.02529 | 7.66248 | 1196 ft | 98 kts | 195° |
| 2026-04-29 17:54 | 52.01881 | 7.65807 | 1216 ft | 101 kts | 188° |
| 2026-04-29 17:54 | 52.01224 | 7.65467 | 1319 ft | 96 kts | 185° |
| 2026-04-29 17:54 | 52.00584 | 7.65160 | 1438 ft | 95 kts | 182° |
| 2026-04-29 17:55 | 51.99952 | 7.64909 | 1554 ft | 97 kts | 181° |
| 2026-04-29 17:55 | 51.99331 | 7.64310 | 1606 ft | 115 kts | 217° |
| 2026-04-29 17:55 | 51.98917 | 7.63178 | 1729 ft | 117 kts | 240° |
| 2026-04-29 17:55 | 51.98664 | 7.61926 | 1811 ft | 122 kts | 267° |
| 2026-04-29 17:56 | 51.98691 | 7.60577 | 1923 ft | 116 kts | 264° |
| 2026-04-29 17:56 | 51.98386 | 7.59382 | 1964 ft | 118 kts | 226° |
| 2026-04-29 17:56 | 51.97837 | 7.58421 | 1968 ft | 118 kts | 220° |
| 2026-04-29 17:56 | 51.97217 | 7.57767 | 1958 ft | 105 kts | 177° |
| 2026-04-29 17:57 | 51.96579 | 7.57937 | 1975 ft | 87 kts | 140° |
| 2026-04-29 17:57 | 51.96142 | 7.58524 | 1947 ft | 85 kts | 129° |
| 2026-04-29 17:57 | 51.95827 | 7.59246 | 1929 ft | 76 kts | 105° |
| 2026-04-29 17:57 | 51.95420 | 7.59844 | 1864 ft | 85 kts | 140° |
| 2026-04-29 17:58 | 51.94898 | 7.60258 | 1806 ft | 80 kts | 126° |
| 2026-04-29 17:58 | 51.94641 | 7.60981 | 1761 ft | 71 kts | 97° |
| 2026-04-29 17:58 | 51.94680 | 7.61764 | 1733 ft | 71 kts | 72° |
| 2026-04-29 17:58 | 51.94943 | 7.62447 | 1671 ft | 74 kts | 60° |
| 2026-04-29 17:59 | 51.95168 | 7.63181 | 1645 ft | 70 kts | 70° |
| 2026-04-29 17:59 | 51.95459 | 7.63849 | 1579 ft | 71 kts | 66° |
| 2026-04-29 17:59 | 51.95460 | 7.64671 | 1435 ft | 77 kts | 92° |
| 2026-04-29 17:59 | 51.95395 | 7.65491 | 1387 ft | 69 kts | 96° |
| 2026-04-29 18:00 | 51.95246 | 7.66281 | 1212 ft | 77 kts | 114° |
| 2026-04-29 18:00 | 51.95037 | 7.67040 | 1201 ft | 70 kts | 101° |
| 2026-04-29 18:00 | 51.94974 | 7.67777 | 1209 ft | 65 kts | 91° |
| 2026-04-29 18:00 | 51.94889 | 7.68506 | 1143 ft | 66 kts | 93° |
| 2026-04-29 18:01 | 51.94825 | 7.69282 | 1072 ft | 72 kts | 93° |
| 2026-04-29 18:01 | 51.94758 | 7.70085 | 1035 ft | 72 kts | 92° |
| 2026-04-29 18:01 | 51.94713 | 7.70898 | 969 ft | 76 kts | 90° |
| 2026-04-29 18:01 | 51.94635 | 7.71749 | 935 ft | 77 kts | 93° |
| 2026-04-29 18:02 | 51.94611 | 7.72577 | 823 ft | 66 kts | 91° |
| 2026-04-29 18:02 | 51.94568 | 7.73255 | 709 ft | 60 kts | 84° |
| 2026-04-29 18:02 | 51.94560 | 7.73933 | 639 ft | 62 kts | 83° |
| 2026-04-29 18:02 | 51.94566 | 7.74615 | 573 ft | 66 kts | 83° |
| 2026-04-29 18:03 | 51.94536 | 7.75339 | 437 ft | 64 kts | 88° |
| 2026-04-29 18:03 | 51.94512 | 7.76060 | 332 ft | 65 kts | 87° |
| 2026-04-29 18:03 | 51.94479 | 7.76768 | 190 ft | 62 kts | 87° |
| 2026-04-29 18:03 | 51.94456 | 7.77287 | 183 ft | 24 kts | 93° |
| 2026-04-29 18:04 | 51.94449 | 7.77418 | 192 ft | 1 kts | 137° |
| 2026-04-29 18:04 | 51.94445 | 7.77499 | 184 ft | 19 kts | 88° |
| 2026-04-29 18:04 | 51.94439 | 7.77718 | 183 ft | 20 kts | 94° |
| 2026-04-29 18:04 | 51.94444 | 7.77878 | 182 ft | 7 kts | 168° |
| 2026-04-29 18:05 | 51.94398 | 7.77743 | 183 ft | 15 kts | 264° |
| 2026-04-29 18:05 | 51.94393 | 7.77587 | 186 ft | 13 kts | 272° |
| 2026-04-29 18:05 | 51.94397 | 7.77440 | 185 ft | 14 kts | 261° |
| 2026-04-29 18:05 | 51.94379 | 7.77298 | 182 ft | 8 kts | 313° |
| 2026-04-29 18:06 | 51.94382 | 7.77294 | 182 ft | 0 kts | 344° |